• Join FlightAware (Why Join?)
  • Login
  • US Flag 
01:09AM EDT


 

Airport Tracker/Info


-or-


 

Live Flight TrackerFlight Track Log ✈ SWA3853 ✈ 26-Apr-2013 ✈ KMCI - KDAL

Flight Track Log - Related Links

Times and Time Zones

All times are in EDT time to prevent confusion due to time zone crossing. See the SWA3853 flight status page for this flight to view local times or setup timezone preferences in your user account.

Time Position Orientation Groundspeed Altitude Reporting Facility
EDT Latitude Longitude Course Direction KTS MPH feet Rate Location/Type
03:02PM 39.2833 -94.7333 226° Southwest 145 167 2,300  Level Kansas City TRACON
03:03PM 39.2333 -94.7500 194° South 200 230 5,200 2,100 Climbing Kansas City TRACON
03:04PM 39.2192 -94.7517 185° South 193 222 5,500 2,700 Climbing Kansas City Center
03:05PM 39.1497 -94.7753 195° South 231 266 9,000 3,240 Climbing Kansas City Center
03:06PM 39.0786 -94.8011 196° South 270 311 12,300 3,120 Climbing Kansas City Center
03:07PM 38.9872 -94.8344 196° South 304 350 15,500 3,000 Climbing Kansas City Center
03:08PM 38.9017 -94.8661 196° South 329 379 18,500 3,000 Climbing Kansas City Center
03:09PM 38.7994 -94.9031 196° South 340 391 21,700 2,940 Climbing Kansas City Center
03:10PM 38.7086 -94.9344 195° South 350 403 24,600 2,280 Climbing Kansas City Center
03:11PM 38.6164 -94.9689 196° South 360 414 26,500 2,040 Climbing Kansas City Center
03:12PM 38.5031 -95.0075 195° South 375 432 28,900 2,280 Climbing Kansas City Center
03:13PM 38.4064 -95.0447 197° South 376 433 31,100 2,040 Climbing Kansas City Center
03:14PM 38.2931 -95.0828 195° South 375 432 33,200 1,740 Climbing Kansas City Center
03:15PM 38.1933 -95.1200 196° South 382 440 34,800 1,620 Climbing Kansas City Center
03:16PM 38.0769 -95.1592 195° South 386 444 36,600 1,440 Climbing Kansas City Center
03:17PM 37.9758 -95.1944 195° South 391 450 37,800 1,200 Climbing Kansas City Center
03:18PM 37.8606 -95.2353 196° South 393 452 39,200 1,020 Climbing Kansas City Center
03:19PM 37.7539 -95.2689 194° South 393 452 40,000 360 Climbing Kansas City Center
03:20PM 37.6456 -95.3044 195° South 399 459 40,000  Level Kansas City Center
03:21PM 37.5347 -95.3422 195° South 409 471 40,000  Level Kansas City Center
03:22PM 37.4256 -95.3792 195° South 407 468 40,000  Level Kansas City Center
03:23PM 37.2942 -95.4233 195° South 407 468 40,000  Level Kansas City Center
03:24PM 37.1842 -95.4611 195° South 408 470 40,000  Level Kansas City Center
03:25PM 37.0750 -95.4978 195° South 408 470 40,000  Level Kansas City Center
03:26PM 36.9636 -95.5342 195° South 410 472 40,000  Level Kansas City Center
03:27PM 36.8558 -95.5703 195° South 405 466 40,000  Level Kansas City Center
03:29PM 36.7469 -95.6075 195° South 405 466 40,000  Level Kansas City Center
03:30PM 36.6164 -95.6514 195° South 407 468 40,000  Level Kansas City Center
03:31PM 36.5194 -95.6833 195° South 406 467 40,000  Level Kansas City Center
03:32PM 36.4089 -95.7183 194° South 408 470 40,000  Level Kansas City Center
03:33PM 36.2917 -95.7572 195° South 406 467 40,000  Level Kansas City Center
03:34PM 36.1803 -95.7803 189° South 415 478 40,000  Level Kansas City Center
03:35PM 36.0392 -95.7372 166° South 438 504 40,000  Level Kansas City Center
03:36PM 35.9219 -95.6989 165° South 438 504 40,000  Level Kansas City Center
03:37PM 35.8056 -95.6614 165° South 435 501 40,000  Level Kansas City Center
03:38PM 35.6897 -95.6244 165° South 432 497 40,000  Level Kansas City Center
03:39PM 35.5661 -95.5917 168° South 434 499 40,000  Level Fort Worth Center
03:40PM 35.4508 -95.5533 165° South 434 499 40,000  Level Fort Worth Center
03:41PM 35.3314 -95.5153 165° South 434 499 40,000 -60 Level Fort Worth Center
03:42PM 35.2119 -95.4772 165° South 434 499 39,900 -540 Descending Fort Worth Center
03:43PM 35.0925 -95.4394 165° South 439 505 39,000 -480 Descending Fort Worth Center
03:44PM 34.9689 -95.4017 166° South 444 511 39,000  Level Fort Worth Center
03:45PM 34.8494 -95.3667 166° South 444 511 39,000 -300 Level Fort Worth Center
03:46PM 34.7256 -95.3292 166° South 449 517 38,400 -840 Descending Fort Worth Center
03:47PM 34.6039 -95.2892 165° South 454 522 37,400 -1,020 Descending Fort Worth Center
03:48PM 34.4719 -95.2472 165° South 454 522 36,400 -960 Descending Fort Worth Center
03:49PM 34.3525 -95.2200 169° South 454 522 35,500 -960 Descending Fort Worth Center
03:50PM 34.2681 -95.2950 216° Southwest 393 452 34,500 -1,020 Descending Fort Worth Center
03:51PM 34.1842 -95.3850 222° Southwest 400 460 33,500 -960 Descending Fort Worth Center
03:52PM 34.0806 -95.4325 201° Southwest 400 460 32,600 -1,320 Descending Fort Worth Center
03:53PM 33.9636 -95.4250 177° South 398 458 30,900 -1,740 Descending Fort Worth Center
03:54PM 33.8489 -95.4303 182° South 407 468 29,200 -1,860 Descending Fort Worth Center
03:55PM 33.7581 -95.5022 213° Southwest 387 445 27,200 -2,160 Descending Fort Worth Center
03:56PM 33.6950 -95.6061 234° Southwest 358 412 24,900 -2,280 Descending Fort Worth Center
03:57PM 33.6381 -95.7044 235° Southwest 347 399 22,700 -1,980 Descending Fort Worth Center
03:58PM 33.5889 -95.7828 233° Southwest 347 399 21,000 -2,040 Descending Fort Worth Center
03:59PM 33.5317 -95.8833 236° Southwest 336 387 18,700 -2,040 Descending Fort Worth Center
04:00PM 33.4847 -95.9589 233° Southwest 329 379 17,000 -1,980 Descending Fort Worth Center
04:01PM 33.4294 -96.0544 235° Southwest 324 373 14,800 -2,100 Descending Fort Worth Center
04:02PM 33.3842 -96.1297 234° Southwest 317 365 12,800 -2,100 Descending Fort Worth Center
04:03PM 33.3308 -96.2200 235° Southwest 317 365 10,700 -1,500 Descending Fort Worth Center
04:04PM 33.2897 -96.2903 235° Southwest 302 348 9,800 -1,080 Descending Fort Worth Center
04:05PM 33.2425 -96.3678 234° Southwest 280 322 8,600 -1,080 Descending Fort Worth Center
04:06PM 33.2011 -96.4303 232° Southwest 270 311 7,700 -1,020 Descending Fort Worth Center
04:07PM 33.1600 -96.5028 236° Southwest 257 296 6,600 -1,020 Descending Fort Worth Center
04:08PM 33.1353 -96.5675 245° Southwest 245 282 5,700 -900 Descending Fort Worth Center
04:09PM 33.1067 -96.6397 245° Southwest 240 276 4,900 -840 Descending Fort Worth Center
04:10PM 33.0667 -96.7167 238° Southwest 238 274 4,000 -900 Descending Dallas / Fort Worth TRACON
04:11PM 33.0167 -96.7667 220° Southwest 230 265 3,000 -600 Descending Dallas / Fort Worth TRACON
04:12PM 32.9833 -96.8167 232° Southwest 201 231 2,900 -600 Descending Dallas / Fort Worth TRACON
04:13PM 32.9333 -96.8667 220° Southwest 211 243 1,900 -540 Descending Dallas / Fort Worth TRACON
04:14PM 32.9000 -96.9000 220° Southwest 159 183 1,800 -480 Descending Dallas / Fort Worth TRACON
04:15PM 32.8833 -96.8833 140° Southeast 130 150 1,000 -840 Descending Dallas / Fort Worth TRACON
04:18PM 32.8471 -96.8518 228° Southwest  Level Estimated